Poca, West Virginia
Current Conditions -  °F | °C
As of 3:54 PM on Friday 31 Oct 2014 (Local Time) from KCRW Reporting Station
Drizzle Drizzle  
Wind Chill: 47°   Ceiling: 3800
Heat Index: 47°   Visibility: 8mi
Dew Point: 36°   Wind: 0mph
Humidity: 66%   Direction: NA
Pressure: 29.85"   Gusts: NA
Location:  38.47°N, 81.81°W
Report Text: KCRW 311954Z 00000KT 8SM -DZ SCT025 BKN038 OVC070 08/02 A2985 RMK AO2 RAE40DZB43 SLP113 BKN V OVC P0000 T00830022
Loading
Personal Weather Stations






























Interactive Weather Map
Tropical Storm Tracking
New forecast layout! Learn more

10-Day Weather Forecast

Advertisements
Track Severe Weather on mobile